sensor_id;sensor_type;location;lat;lon;timestamp;pressure;altitude;pressure_sealevel;temperature;humidity
23253;BME280;11795;47.054;15.408;2023-01-26T00:00:00;97920;;;2.1;92.5
23253;BME280;11795;47.054;15.408;2023-01-26T00:02:00;97910;;;1.9;92.8
23253;BME280;11795;47.054;15.408;2023-01-26T00:04:00;97910;;;2.2;92.9
23253;BME280;11795;47.054;15.408;2023-01-26T00:06:02;97910;;;2.0;93.0
23253;BME280;11795;47.054;15.408;2023-01-26T00:08:00;97910;;;2.0;93.3
23253;BME280;11795;47.054;15.408;2023-01-26T00:10:00;97910;;;2.0;93.1
23253;BME280;11795;47.054;15.408;2023-01-26T00:12:00;97910;;;2.0;93.4
23253;BME280;11795;47.054;15.408;2023-01-26T00:14:00;97910;;;2.1;93.8
23253;BME280;11795;47.054;15.408;2023-01-26T00:16:01;97910;;;2.0;93.4
23253;BME280;11795;47.054;15.408;2023-01-26T00:18:01;97910;;;2.0;93.7
23253;BME280;11795;47.054;15.408;2023-01-26T00:20:00;97910;;;2.0;93.5
23253;BME280;11795;47.054;15.408;2023-01-26T00:22:00;97910;;;2.0;93.6
23253;BME280;11795;47.054;15.408;2023-01-26T00:24:00;97910;;;2.2;93.6
23253;BME280;11795;47.054;15.408;2023-01-26T00:26:01;97910;;;2.0;93.7
23253;BME280;11795;47.054;15.408;2023-01-26T00:28:00;97910;;;2.0;93.8
23253;BME280;11795;47.054;15.408;2023-01-26T00:30:01;97910;;;2.1;93.6
23253;BME280;11795;47.054;15.408;2023-01-26T00:32:00;97910;;;2.0;93.9
23253;BME280;11795;47.054;15.408;2023-01-26T00:34:00;97910;;;2.2;93.8
23253;BME280;11795;47.054;15.408;2023-01-26T00:36:00;97910;;;2.2;93.4
23253;BME280;11795;47.054;15.408;2023-01-26T00:38:00;97910;;;2.0;92.9
23253;BME280;11795;47.054;15.408;2023-01-26T00:40:00;97910;;;2.1;92.8
23253;BME280;11795;47.054;15.408;2023-01-26T00:42:10;97910;;;2.1;92.9
23253;BME280;11795;47.054;15.408;2023-01-26T00:44:00;97910;;;2.2;92.9
23253;BME280;11795;47.054;15.408;2023-01-26T00:46:00;97910;;;2.1;93.3
23253;BME280;11795;47.054;15.408;2023-01-26T00:48:00;97910;;;2.0;93.2
23253;BME280;11795;47.054;15.408;2023-01-26T00:50:00;97910;;;2.0;93.1
23253;BME280;11795;47.054;15.408;2023-01-26T00:52:00;97910;;;1.9;93.5
23253;BME280;11795;47.054;15.408;2023-01-26T00:54:00;97900;;;2.1;93.5
23253;BME280;11795;47.054;15.408;2023-01-26T00:56:00;97900;;;2.0;93.1
23253;BME280;11795;47.054;15.408;2023-01-26T00:58:01;97890;;;2.0;93.3
23253;BME280;11795;47.054;15.408;2023-01-26T01:00:00;97890;;;2.0;92.9
23253;BME280;11795;47.054;15.408;2023-01-26T01:02:02;97890;;;1.8;93.3
23253;BME280;11795;47.054;15.408;2023-01-26T01:04:00;97900;;;2.0;93.4
23253;BME280;11795;47.054;15.408;2023-01-26T01:06:00;97890;;;1.9;93.0
23253;BME280;11795;47.054;15.408;2023-01-26T01:08:01;97890;;;1.8;93.3
23253;BME280;11795;47.054;15.408;2023-01-26T01:10:00;97900;;;1.9;93.2
23253;BME280;11795;47.054;15.408;2023-01-26T01:12:00;97890;;;1.8;93.7
23253;BME280;11795;47.054;15.408;2023-01-26T01:14:01;97890;;;2.0;93.8
23253;BME280;11795;47.054;15.408;2023-01-26T01:16:03;97890;;;2.0;92.8
23253;BME280;11795;47.054;15.408;2023-01-26T01:18:00;97890;;;1.9;93.2
23253;BME280;11795;47.054;15.408;2023-01-26T01:20:00;97890;;;1.9;93.1
23253;BME280;11795;47.054;15.408;2023-01-26T01:22:00;97890;;;1.8;93.4
23253;BME280;11795;47.054;15.408;2023-01-26T01:24:01;97890;;;2.0;93.7
23253;BME280;11795;47.054;15.408;2023-01-26T01:26:01;97890;;;1.8;93.6
23253;BME280;11795;47.054;15.408;2023-01-26T01:28:00;97890;;;1.9;94.1
23253;BME280;11795;47.054;15.408;2023-01-26T01:30:00;97890;;;2.0;93.6
23253;BME280;11795;47.054;15.408;2023-01-26T01:32:00;97890;;;1.9;93.9
23253;BME280;11795;47.054;15.408;2023-01-26T01:34:00;97890;;;2.1;93.8
23253;BME280;11795;47.054;15.408;2023-01-26T01:36:02;97890;;;2.0;93.6
23253;BME280;11795;47.054;15.408;2023-01-26T01:38:01;97890;;;2.0;93.2
23253;BME280;11795;47.054;15.408;2023-01-26T01:40:00;97890;;;2.0;92.6
23253;BME280;11795;47.054;15.408;2023-01-26T01:42:00;97880;;;1.9;93.0
23253;BME280;11795;47.054;15.408;2023-01-26T01:44:12;97880;;;2.1;93.0
23253;BME280;11795;47.054;15.408;2023-01-26T01:46:02;97880;;;2.0;92.9
23253;BME280;11795;47.054;15.408;2023-01-26T01:48:03;97880;;;2.0;93.1
23253;BME280;11795;47.054;15.408;2023-01-26T01:50:04;97880;;;2.0;92.6
23253;BME280;11795;47.054;15.408;2023-01-26T01:52:03;97870;;;1.9;93.1
23253;BME280;11795;47.054;15.408;2023-01-26T01:54:03;97870;;;2.1;93.3
23253;BME280;11795;47.054;15.408;2023-01-26T01:56:04;97870;;;2.0;93.1
23253;BME280;11795;47.054;15.408;2023-01-26T01:58:02;97870;;;1.9;93.0
23253;BME280;11795;47.054;15.408;2023-01-26T02:00:04;97860;;;2.0;92.7
23253;BME280;11795;47.054;15.408;2023-01-26T02:02:00;97860;;;1.9;92.3
23253;BME280;11795;47.054;15.408;2023-01-26T02:04:04;97860;;;2.1;92.4
23253;BME280;11795;47.054;15.408;2023-01-26T02:06:02;97860;;;2.0;92.0
23253;BME280;11795;47.054;15.408;2023-01-26T02:08:00;97860;;;1.9;92.4
23253;BME280;11795;47.054;15.408;2023-01-26T02:10:10;97860;;;1.9;92.2
23253;BME280;11795;47.054;15.408;2023-01-26T02:12:01;97860;;;1.8;92.4
23253;BME280;11795;47.054;15.408;2023-01-26T02:14:02;97850;;;2.0;92.5
23253;BME280;11795;47.054;15.408;2023-01-26T02:16:00;97850;;;1.9;92.3
23253;BME280;11795;47.054;15.408;2023-01-26T02:18:02;97850;;;1.8;92.7
23253;BME280;11795;47.054;15.408;2023-01-26T02:20:04;97850;;;2.0;92.3
23253;BME280;11795;47.054;15.408;2023-01-26T02:22:05;97840;;;1.9;92.5
23253;BME280;11795;47.054;15.408;2023-01-26T02:24:08;97840;;;2.1;92.6
23253;BME280;11795;47.054;15.408;2023-01-26T02:26:03;97830;;;1.9;92.3
23253;BME280;11795;47.054;15.408;2023-01-26T02:28:00;97830;;;1.9;92.4
23253;BME280;11795;47.054;15.408;2023-01-26T02:30:01;97830;;;2.0;92.0
23253;BME280;11795;47.054;15.408;2023-01-26T02:32:00;97820;;;1.9;92.4
23253;BME280;11795;47.054;15.408;2023-01-26T02:34:00;97820;;;2.0;92.3
23253;BME280;11795;47.054;15.408;2023-01-26T02:36:02;97820;;;1.9;92.1
23253;BME280;11795;47.054;15.408;2023-01-26T02:38:00;97820;;;1.9;92.2
23253;BME280;11795;47.054;15.408;2023-01-26T02:40:02;97810;;;2.0;91.9
23253;BME280;11795;47.054;15.408;2023-01-26T02:42:10;97810;;;1.9;92.2
23253;BME280;11795;47.054;15.408;2023-01-26T02:44:01;97810;;;2.0;92.3
23253;BME280;11795;47.054;15.408;2023-01-26T02:46:00;97810;;;1.9;92.0
23253;BME280;11795;47.054;15.408;2023-01-26T02:48:03;97800;;;1.8;92.3
23253;BME280;11795;47.054;15.408;2023-01-26T02:50:00;97800;;;2.0;91.9
23253;BME280;11795;47.054;15.408;2023-01-26T02:52:00;97800;;;1.9;92.1
23253;BME280;11795;47.054;15.408;2023-01-26T02:54:00;97800;;;2.1;92.0
23253;BME280;11795;47.054;15.408;2023-01-26T02:56:01;97790;;;1.9;91.5
23253;BME280;11795;47.054;15.408;2023-01-26T02:58:02;97790;;;1.9;91.7
23253;BME280;11795;47.054;15.408;2023-01-26T03:00:01;97780;;;2.0;90.7
23253;BME280;11795;47.054;15.408;2023-01-26T03:02:00;97780;;;1.9;90.6
23253;BME280;11795;47.054;15.408;2023-01-26T03:04:00;97780;;;2.0;90.6
23253;BME280;11795;47.054;15.408;2023-01-26T03:06:00;97780;;;1.9;90.1
23253;BME280;11795;47.054;15.408;2023-01-26T03:08:00;97780;;;1.8;90.5
23253;BME280;11795;47.054;15.408;2023-01-26T03:10:00;97770;;;1.9;89.9
23253;BME280;11795;47.054;15.408;2023-01-26T03:12:00;97770;;;1.8;90.4
23253;BME280;11795;47.054;15.408;2023-01-26T03:14:00;97770;;;2.1;90.1
23253;BME280;11795;47.054;15.408;2023-01-26T03:16:07;97770;;;1.9;89.8
23253;BME280;11795;47.054;15.408;2023-01-26T03:18:12;97760;;;1.8;90.2
23253;BME280;11795;47.054;15.408;2023-01-26T03:20:10;97760;;;1.9;89.5
23253;BME280;11795;47.054;15.408;2023-01-26T03:22:10;97760;;;1.8;89.6
23253;BME280;11795;47.054;15.408;2023-01-26T03:24:11;97760;;;2.0;89.8
23253;BME280;11795;47.054;15.408;2023-01-26T03:26:10;97750;;;1.8;89.6
23253;BME280;11795;47.054;15.408;2023-01-26T03:28:00;97750;;;1.8;89.9
23253;BME280;11795;47.054;15.408;2023-01-26T03:30:00;97750;;;2.0;89.5
23253;BME280;11795;47.054;15.408;2023-01-26T03:32:00;97750;;;1.8;89.3
23253;BME280;11795;47.054;15.408;2023-01-26T03:34:00;97740;;;2.0;88.8
23253;BME280;11795;47.054;15.408;2023-01-26T03:36:00;97750;;;1.8;88.9
23253;BME280;11795;47.054;15.408;2023-01-26T03:38:00;97740;;;1.8;89.4
23253;BME280;11795;47.054;15.408;2023-01-26T03:40:12;97740;;;1.9;88.9
23253;BME280;11795;47.054;15.408;2023-01-26T03:42:10;97740;;;1.8;89.2
23253;BME280;11795;47.054;15.408;2023-01-26T03:44:10;97730;;;1.9;89.5
23253;BME280;11795;47.054;15.408;2023-01-26T03:46:10;97730;;;1.8;89.3
23253;BME280;11795;47.054;15.408;2023-01-26T03:48:11;97730;;;1.7;89.6
23253;BME280;11795;47.054;15.408;2023-01-26T03:50:10;97730;;;1.8;89.2
23253;BME280;11795;47.054;15.408;2023-01-26T03:52:10;97720;;;1.8;89.2
23253;BME280;11795;47.054;15.408;2023-01-26T03:54:10;97720;;;1.9;89.2
23253;BME280;11795;47.054;15.408;2023-01-26T03:56:10;97710;;;1.8;88.7
23253;BME280;11795;47.054;15.408;2023-01-26T03:58:00;97720;;;1.7;89.1
23253;BME280;11795;47.054;15.408;2023-01-26T04:00:00;97710;;;1.9;88.7
23253;BME280;11795;47.054;15.408;2023-01-26T04:02:11;97710;;;1.8;88.7
23253;BME280;11795;47.054;15.408;2023-01-26T04:04:10;97710;;;1.9;88.9
23253;BME280;11795;47.054;15.408;2023-01-26T04:06:10;97720;;;1.8;88.8
23253;BME280;11795;47.054;15.408;2023-01-26T04:08:10;97710;;;1.8;88.8
23253;BME280;11795;47.054;15.408;2023-01-26T04:10:00;97700;;;1.9;88.3
23253;BME280;11795;47.054;15.408;2023-01-26T04:12:00;97700;;;1.7;88.6
23253;BME280;11795;47.054;15.408;2023-01-26T04:14:10;97700;;;1.9;88.8
23253;BME280;11795;47.054;15.408;2023-01-26T04:16:10;97700;;;1.8;88.6
23253;BME280;11795;47.054;15.408;2023-01-26T04:18:10;97700;;;1.7;89.0
23253;BME280;11795;47.054;15.408;2023-01-26T04:20:10;97700;;;1.8;88.6
23253;BME280;11795;47.054;15.408;2023-01-26T04:22:00;97700;;;1.7;89.1
23253;BME280;11795;47.054;15.408;2023-01-26T04:24:01;97690;;;1.8;89.3
23253;BME280;11795;47.054;15.408;2023-01-26T04:26:00;97690;;;1.7;89.2
23253;BME280;11795;47.054;15.408;2023-01-26T04:28:00;97690;;;1.7;89.5
23253;BME280;11795;47.054;15.408;2023-01-26T04:30:00;97690;;;1.8;89.1
23253;BME280;11795;47.054;15.408;2023-01-26T04:32:00;97690;;;1.7;89.5
23253;BME280;11795;47.054;15.408;2023-01-26T04:34:02;97680;;;1.9;89.7
23253;BME280;11795;47.054;15.408;2023-01-26T04:36:02;97680;;;1.8;89.4
23253;BME280;11795;47.054;15.408;2023-01-26T04:38:00;97680;;;1.7;89.5
23253;BME280;11795;47.054;15.408;2023-01-26T04:40:00;97680;;;1.9;89.1
23253;BME280;11795;47.054;15.408;2023-01-26T04:42:00;97680;;;1.8;89.5
23253;BME280;11795;47.054;15.408;2023-01-26T04:44:00;97680;;;1.9;89.3
23253;BME280;11795;47.054;15.408;2023-01-26T04:46:02;97680;;;1.8;89.2
23253;BME280;11795;47.054;15.408;2023-01-26T04:48:00;97680;;;1.7;89.7
23253;BME280;11795;47.054;15.408;2023-01-26T04:50:00;97670;;;1.9;89.1
23253;BME280;11795;47.054;15.408;2023-01-26T04:52:00;97670;;;1.8;89.6
23253;BME280;11795;47.054;15.408;2023-01-26T04:54:00;97670;;;2.0;89.1
23253;BME280;11795;47.054;15.408;2023-01-26T04:56:00;97670;;;1.9;89.1
23253;BME280;11795;47.054;15.408;2023-01-26T04:58:00;97670;;;1.8;89.1
23253;BME280;11795;47.054;15.408;2023-01-26T05:00:00;97670;;;1.8;89.2
23253;BME280;11795;47.054;15.408;2023-01-26T05:02:00;97670;;;1.6;89.9
23253;BME280;11795;47.054;15.408;2023-01-26T05:04:01;97680;;;1.8;90.3
23253;BME280;11795;47.054;15.408;2023-01-26T05:06:00;97680;;;1.6;90.1
23253;BME280;11795;47.054;15.408;2023-01-26T05:08:00;97680;;;1.6;90.6
23253;BME280;11795;47.054;15.408;2023-01-26T05:10:00;97670;;;1.8;90.3
23253;BME280;11795;47.054;15.408;2023-01-26T05:12:10;97670;;;1.7;90.7
23253;BME280;11795;47.054;15.408;2023-01-26T05:14:00;97670;;;1.8;90.7
23253;BME280;11795;47.054;15.408;2023-01-26T05:16:00;97670;;;1.8;90.5
23253;BME280;11795;47.054;15.408;2023-01-26T05:18:01;97670;;;1.8;90.1
23253;BME280;11795;47.054;15.408;2023-01-26T05:20:00;97670;;;1.9;89.7
23253;BME280;11795;47.054;15.408;2023-01-26T05:22:00;97670;;;1.7;90.3
23253;BME280;11795;47.054;15.408;2023-01-26T05:24:00;97670;;;1.7;90.9
23253;BME280;11795;47.054;15.408;2023-01-26T05:26:00;97670;;;1.6;91.1
23253;BME280;11795;47.054;15.408;2023-01-26T05:28:00;97670;;;1.6;91.5
23253;BME280;11795;47.054;15.408;2023-01-26T05:30:00;97660;;;1.7;91.1
23253;BME280;11795;47.054;15.408;2023-01-26T05:32:01;97660;;;1.6;91.0
23253;BME280;11795;47.054;15.408;2023-01-26T05:34:00;97660;;;1.7;91.4
23253;BME280;11795;47.054;15.408;2023-01-26T05:36:03;97660;;;1.6;91.3
23253;BME280;11795;47.054;15.408;2023-01-26T05:38:00;97660;;;1.6;91.5
23253;BME280;11795;47.054;15.408;2023-01-26T05:40:00;97670;;;1.7;90.9
23253;BME280;11795;47.054;15.408;2023-01-26T05:42:00;97670;;;1.5;91.0
23253;BME280;11795;47.054;15.408;2023-01-26T05:44:00;97670;;;1.6;91.4
23253;BME280;11795;47.054;15.408;2023-01-26T05:46:01;97660;;;1.7;90.6
23253;BME280;11795;47.054;15.408;2023-01-26T05:48:00;97660;;;1.7;90.4
23253;BME280;11795;47.054;15.408;2023-01-26T05:50:00;97670;;;1.6;90.6
23253;BME280;11795;47.054;15.408;2023-01-26T05:52:00;97670;;;1.5;91.2
23253;BME280;11795;47.054;15.408;2023-01-26T05:54:00;97670;;;1.6;91.5
23253;BME280;11795;47.054;15.408;2023-01-26T05:56:00;97660;;;1.7;91.4
23253;BME280;11795;47.054;15.408;2023-01-26T05:58:00;97660;;;1.5;91.7
23253;BME280;11795;47.054;15.408;2023-01-26T06:00:00;97660;;;1.6;91.2
23253;BME280;11795;47.054;15.408;2023-01-26T06:02:00;97660;;;1.5;91.8
23253;BME280;11795;47.054;15.408;2023-01-26T06:04:00;97660;;;1.6;91.8
23253;BME280;11795;47.054;15.408;2023-01-26T06:06:00;97670;;;1.5;91.8
23253;BME280;11795;47.054;15.408;2023-01-26T06:08:00;97670;;;1.4;92.4
23253;BME280;11795;47.054;15.408;2023-01-26T06:10:00;97670;;;1.5;92.1
23253;BME280;11795;47.054;15.408;2023-01-26T06:12:00;97670;;;1.5;92.4
23253;BME280;11795;47.054;15.408;2023-01-26T06:14:00;97670;;;1.5;92.8
23253;BME280;11795;47.054;15.408;2023-01-26T06:16:00;97670;;;1.6;92.6
23253;BME280;11795;47.054;15.408;2023-01-26T06:18:00;97670;;;1.4;92.9
23253;BME280;11795;47.054;15.408;2023-01-26T06:20:00;97670;;;1.5;93.1
23253;BME280;11795;47.054;15.408;2023-01-26T06:22:00;97670;;;1.4;93.1
23253;BME280;11795;47.054;15.408;2023-01-26T06:24:00;97660;;;1.4;93.6
23253;BME280;11795;47.054;15.408;2023-01-26T06:26:01;97660;;;1.4;93.3
23253;BME280;11795;47.054;15.408;2023-01-26T06:28:00;97660;;;1.5;93.4
23253;BME280;11795;47.054;15.408;2023-01-26T06:30:00;97660;;;1.5;92.8
23253;BME280;11795;47.054;15.408;2023-01-26T06:32:00;97660;;;1.4;93.2
23253;BME280;11795;47.054;15.408;2023-01-26T06:34:00;97660;;;1.5;93.6
23253;BME280;11795;47.054;15.408;2023-01-26T06:36:01;97660;;;1.5;93.2
23253;BME280;11795;47.054;15.408;2023-01-26T06:38:00;97660;;;1.4;93.5
23253;BME280;11795;47.054;15.408;2023-01-26T06:40:00;97660;;;1.6;93.2
23253;BME280;11795;47.054;15.408;2023-01-26T06:42:00;97650;;;1.5;93.5
23253;BME280;11795;47.054;15.408;2023-01-26T06:44:00;97650;;;1.6;93.5
23253;BME280;11795;47.054;15.408;2023-01-26T06:46:03;97650;;;1.5;93.2
23253;BME280;11795;47.054;15.408;2023-01-26T06:48:00;97650;;;1.6;92.7
23253;BME280;11795;47.054;15.408;2023-01-26T06:50:00;97660;;;1.6;92.1
23253;BME280;11795;47.054;15.408;2023-01-26T06:52:03;97650;;;1.5;92.2
23253;BME280;11795;47.054;15.408;2023-01-26T06:54:00;97660;;;1.6;92.6
23253;BME280;11795;47.054;15.408;2023-01-26T06:56:00;97650;;;1.5;92.3
23253;BME280;11795;47.054;15.408;2023-01-26T06:58:00;97650;;;1.5;92.6
23253;BME280;11795;47.054;15.408;2023-01-26T07:00:00;97660;;;1.5;92.2
23253;BME280;11795;47.054;15.408;2023-01-26T07:02:00;97650;;;1.4;92.5
23253;BME280;11795;47.054;15.408;2023-01-26T07:04:00;97650;;;1.6;92.9
23253;BME280;11795;47.054;15.408;2023-01-26T07:06:00;97650;;;1.6;92.4
23253;BME280;11795;47.054;15.408;2023-01-26T07:08:03;97650;;;1.5;92.8
23253;BME280;11795;47.054;15.408;2023-01-26T07:10:00;97650;;;1.7;92.3
23253;BME280;11795;47.054;15.408;2023-01-26T07:12:00;97650;;;1.6;92.5
23253;BME280;11795;47.054;15.408;2023-01-26T07:14:00;97650;;;1.8;92.0
23253;BME280;11795;47.054;15.408;2023-01-26T07:16:00;97640;;;1.7;91.5
23253;BME280;11795;47.054;15.408;2023-01-26T07:18:00;97650;;;1.7;91.5
23253;BME280;11795;47.054;15.408;2023-01-26T07:20:00;97640;;;1.8;91.2
23253;BME280;11795;47.054;15.408;2023-01-26T07:22:00;97640;;;1.6;91.6
23253;BME280;11795;47.054;15.408;2023-01-26T07:24:00;97640;;;1.8;91.8
23253;BME280;11795;47.054;15.408;2023-01-26T07:26:00;97640;;;1.8;91.5
23253;BME280;11795;47.054;15.408;2023-01-26T07:28:00;97640;;;1.7;91.8
23253;BME280;11795;47.054;15.408;2023-01-26T07:30:00;97640;;;1.9;91.4
23253;BME280;11795;47.054;15.408;2023-01-26T07:32:00;97640;;;1.7;91.3
23253;BME280;11795;47.054;15.408;2023-01-26T07:34:00;97640;;;1.8;91.8
23253;BME280;11795;47.054;15.408;2023-01-26T07:36:01;97640;;;1.8;91.1
23253;BME280;11795;47.054;15.408;2023-01-26T07:38:02;97640;;;1.8;91.4
23253;BME280;11795;47.054;15.408;2023-01-26T07:40:00;97640;;;2.0;90.4
23253;BME280;11795;47.054;15.408;2023-01-26T07:42:00;97640;;;1.9;90.1
23253;BME280;11795;47.054;15.408;2023-01-26T07:44:01;97640;;;1.9;89.9
23253;BME280;11795;47.054;15.408;2023-01-26T07:46:00;97640;;;1.9;89.7
23253;BME280;11795;47.054;15.408;2023-01-26T07:48:00;97640;;;1.7;90.0
23253;BME280;11795;47.054;15.408;2023-01-26T07:50:00;97640;;;1.9;89.8
23253;BME280;11795;47.054;15.408;2023-01-26T07:52:00;97640;;;1.9;89.8
23253;BME280;11795;47.054;15.408;2023-01-26T07:54:01;97650;;;1.9;90.1
23253;BME280;11795;47.054;15.408;2023-01-26T07:56:05;97640;;;1.9;89.8
23253;BME280;11795;47.054;15.408;2023-01-26T07:58:00;97650;;;1.8;89.9
23253;BME280;11795;47.054;15.408;2023-01-26T08:00:00;97650;;;2.0;89.5
23253;BME280;11795;47.054;15.408;2023-01-26T08:02:00;97650;;;1.9;89.9
23253;BME280;11795;47.054;15.408;2023-01-26T08:04:00;97650;;;1.8;90.1
23253;BME280;11795;47.054;15.408;2023-01-26T08:06:00;97650;;;1.9;89.6
23253;BME280;11795;47.054;15.408;2023-01-26T08:08:00;97650;;;1.9;89.8
23253;BME280;11795;47.054;15.408;2023-01-26T08:10:00;97650;;;2.0;89.5
23253;BME280;11795;47.054;15.408;2023-01-26T08:12:01;97650;;;1.9;89.4
23253;BME280;11795;47.054;15.408;2023-01-26T08:14:00;97650;;;2.1;88.8
23253;BME280;11795;47.054;15.408;2023-01-26T08:16:02;97650;;;2.0;87.8
23253;BME280;11795;47.054;15.408;2023-01-26T08:18:03;97650;;;2.0;88.1
23253;BME280;11795;47.054;15.408;2023-01-26T08:20:00;97650;;;2.0;87.8
23253;BME280;11795;47.054;15.408;2023-01-26T08:22:00;97650;;;2.0;87.3
23253;BME280;11795;47.054;15.408;2023-01-26T08:24:03;97650;;;1.9;87.5
23253;BME280;11795;47.054;15.408;2023-01-26T08:26:01;97650;;;1.9;87.9
23253;BME280;11795;47.054;15.408;2023-01-26T08:28:00;97660;;;1.9;88.1
23253;BME280;11795;47.054;15.408;2023-01-26T08:30:00;97660;;;1.9;87.7
23253;BME280;11795;47.054;15.408;2023-01-26T08:32:00;97660;;;1.9;87.8
23253;BME280;11795;47.054;15.408;2023-01-26T08:34:00;97660;;;1.9;87.6
23253;BME280;11795;47.054;15.408;2023-01-26T08:36:00;97660;;;1.7;88.0
23253;BME280;11795;47.054;15.408;2023-01-26T08:38:00;97670;;;1.7;88.8
23253;BME280;11795;47.054;15.408;2023-01-26T08:40:00;97660;;;1.8;88.7
23253;BME280;11795;47.054;15.408;2023-01-26T08:42:00;97660;;;1.7;88.5
23253;BME280;11795;47.054;15.408;2023-01-26T08:44:00;97660;;;1.7;89.2
23253;BME280;11795;47.054;15.408;2023-01-26T08:46:00;97660;;;1.8;88.1
23253;BME280;11795;47.054;15.408;2023-01-26T08:48:00;97660;;;1.8;88.8
23253;BME280;11795;47.054;15.408;2023-01-26T08:50:00;97660;;;1.9;88.8
23253;BME280;11795;47.054;15.408;2023-01-26T08:52:00;97660;;;1.8;89.2
23253;BME280;11795;47.054;15.408;2023-01-26T08:54:00;97660;;;1.8;89.2
23253;BME280;11795;47.054;15.408;2023-01-26T08:56:00;97660;;;1.9;89.0
23253;BME280;11795;47.054;15.408;2023-01-26T08:58:00;97660;;;1.8;89.3
23253;BME280;11795;47.054;15.408;2023-01-26T09:00:01;97660;;;2.0;88.7
23253;BME280;11795;47.054;15.408;2023-01-26T09:02:00;97660;;;1.9;88.9
23253;BME280;11795;47.054;15.408;2023-01-26T09:04:02;97660;;;1.9;89.2
23253;BME280;11795;47.054;15.408;2023-01-26T09:06:01;97660;;;1.9;88.8
23253;BME280;11795;47.054;15.408;2023-01-26T09:08:00;97660;;;1.8;89.0
23253;BME280;11795;47.054;15.408;2023-01-26T09:10:00;97660;;;2.0;88.7
23253;BME280;11795;47.054;15.408;2023-01-26T09:12:00;97660;;;2.0;88.5
23253;BME280;11795;47.054;15.408;2023-01-26T09:14:00;97660;;;2.0;88.9
23253;BME280;11795;47.054;15.408;2023-01-26T09:16:02;97660;;;2.0;88.6
23253;BME280;11795;47.054;15.408;2023-01-26T09:18:00;97660;;;1.9;89.1
23253;BME280;11795;47.054;15.408;2023-01-26T09:20:00;97660;;;2.1;88.7
23253;BME280;11795;47.054;15.408;2023-01-26T09:22:00;97670;;;2.0;87.4
23253;BME280;11795;47.054;15.408;2023-01-26T09:24:01;97670;;;2.1;87.5
23253;BME280;11795;47.054;15.408;2023-01-26T09:26:01;97670;;;2.0;87.1
23253;BME280;11795;47.054;15.408;2023-01-26T09:28:01;97670;;;1.9;87.9
23253;BME280;11795;47.054;15.408;2023-01-26T09:30:00;97670;;;2.0;87.8
23253;BME280;11795;47.054;15.408;2023-01-26T09:32:00;97670;;;2.0;88.0
23253;BME280;11795;47.054;15.408;2023-01-26T09:34:00;97670;;;2.0;88.3
23253;BME280;11795;47.054;15.408;2023-01-26T09:36:02;97670;;;2.1;87.0
23253;BME280;11795;47.054;15.408;2023-01-26T09:38:00;97670;;;2.0;87.1
23253;BME280;11795;47.054;15.408;2023-01-26T09:40:00;97680;;;2.0;86.7
23253;BME280;11795;47.054;15.408;2023-01-26T09:42:11;97670;;;2.0;86.6
23253;BME280;11795;47.054;15.408;2023-01-26T09:44:04;97670;;;1.9;87.5
23253;BME280;11795;47.054;15.408;2023-01-26T09:46:12;97670;;;1.9;87.2
23253;BME280;11795;47.054;15.408;2023-01-26T09:48:11;97660;;;1.8;87.9
23253;BME280;11795;47.054;15.408;2023-01-26T09:50:02;97660;;;2.0;87.5
23253;BME280;11795;47.054;15.408;2023-01-26T09:52:04;97660;;;2.0;86.8
23253;BME280;11795;47.054;15.408;2023-01-26T09:54:03;97660;;;2.0;86.5
23253;BME280;11795;47.054;15.408;2023-01-26T09:56:00;97660;;;1.9;86.7
23253;BME280;11795;47.054;15.408;2023-01-26T09:58:02;97660;;;1.9;87.4
23253;BME280;11795;47.054;15.408;2023-01-26T10:00:05;97650;;;2.1;87.1
23253;BME280;11795;47.054;15.408;2023-01-26T10:02:04;97650;;;1.9;87.0
23253;BME280;11795;47.054;15.408;2023-01-26T10:04:04;97650;;;2.0;86.6
23253;BME280;11795;47.054;15.408;2023-01-26T10:06:06;97640;;;2.0;86.5
23253;BME280;11795;47.054;15.408;2023-01-26T10:08:01;97640;;;2.0;86.2
23253;BME280;11795;47.054;15.408;2023-01-26T10:10:02;97630;;;2.0;86.2
23253;BME280;11795;47.054;15.408;2023-01-26T10:12:02;97640;;;2.0;86.1
23253;BME280;11795;47.054;15.408;2023-01-26T10:14:03;97630;;;2.0;86.7
23253;BME280;11795;47.054;15.408;2023-01-26T10:16:04;97630;;;2.0;86.4
23253;BME280;11795;47.054;15.408;2023-01-26T10:18:03;97630;;;2.0;86.2
23253;BME280;11795;47.054;15.408;2023-01-26T10:20:05;97630;;;2.1;85.7
23253;BME280;11795;47.054;15.408;2023-01-26T10:22:04;97620;;;2.0;86.5
23253;BME280;11795;47.054;15.408;2023-01-26T10:24:01;97620;;;2.0;86.0
23253;BME280;11795;47.054;15.408;2023-01-26T10:26:10;97610;;;2.1;85.1
23253;BME280;11795;47.054;15.408;2023-01-26T10:28:01;97610;;;2.0;85.3
23253;BME280;11795;47.054;15.408;2023-01-26T10:30:00;97600;;;2.0;84.9
23253;BME280;11795;47.054;15.408;2023-01-26T10:32:01;97600;;;1.9;85.3
23253;BME280;11795;47.054;15.408;2023-01-26T10:34:08;97600;;;1.9;85.7
23253;BME280;11795;47.054;15.408;2023-01-26T10:36:01;97600;;;1.9;85.6
23253;BME280;11795;47.054;15.408;2023-01-26T10:38:02;97590;;;2.0;85.4
23253;BME280;11795;47.054;15.408;2023-01-26T10:40:01;97590;;;2.1;85.0
23253;BME280;11795;47.054;15.408;2023-01-26T10:42:02;97590;;;2.0;85.0
23253;BME280;11795;47.054;15.408;2023-01-26T10:44:10;97590;;;2.0;84.4
23253;BME280;11795;47.054;15.408;2023-01-26T10:46:02;97590;;;2.0;83.5
23253;BME280;11795;47.054;15.408;2023-01-26T10:48:04;97580;;;2.1;82.5
23253;BME280;11795;47.054;15.408;2023-01-26T10:50:18;97580;;;2.2;82.3
23253;BME280;11795;47.054;15.408;2023-01-26T10:52:05;97580;;;2.0;82.7
23253;BME280;11795;47.054;15.408;2023-01-26T10:54:16;97570;;;2.1;83.3
23253;BME280;11795;47.054;15.408;2023-01-26T10:56:02;97560;;;2.2;83.0
23253;BME280;11795;47.054;15.408;2023-01-26T10:58:00;97570;;;2.1;83.5
23253;BME280;11795;47.054;15.408;2023-01-26T11:00:05;97560;;;2.3;83.1
23253;BME280;11795;47.054;15.408;2023-01-26T11:02:14;97560;;;2.3;82.9
23253;BME280;11795;47.054;15.408;2023-01-26T11:04:05;97560;;;2.3;82.7
23253;BME280;11795;47.054;15.408;2023-01-26T11:06:05;97550;;;2.3;82.2
23253;BME280;11795;47.054;15.408;2023-01-26T11:08:02;97550;;;2.3;82.2
23253;BME280;11795;47.054;15.408;2023-01-26T11:10:15;97550;;;2.4;81.4
23253;BME280;11795;47.054;15.408;2023-01-26T11:12:01;97550;;;2.3;79.9
23253;BME280;11795;47.054;15.408;2023-01-26T11:14:09;97550;;;2.3;79.9
23253;BME280;11795;47.054;15.408;2023-01-26T11:16:02;97540;;;2.4;78.4
23253;BME280;11795;47.054;15.408;2023-01-26T11:18:04;97540;;;2.3;77.7
23253;BME280;11795;47.054;15.408;2023-01-26T11:20:09;97530;;;2.5;77.3